This is the latest recevied weather packets stored in our database for station/object F4WDE-10. If no packets are shown the sender has not sent any weather packets the latest 10 day(s).
| Time | Temp. | Humidity | Pressure | Rain* | Wind** | Luminosity | Snow |
|---|---|---|---|---|---|---|---|
| 1777236959 | 16.67° C | 86% | 965 hPa | - | - | - | - |
| 1777236058 | 17.22° C | 84% | 965 hPa | - | - | - | - |
| 1777235157 | 17.22° C | 85% | 965 hPa | - | - | - | - |
| 1777234255 | 16.67° C | 87% | 965 hPa | - | - | - | - |
| 1777233355 | 16.67° C | 89% | 965 hPa | - | - | - | - |
| 1777232453 | 16.11° C | 92% | 965 hPa | - | - | - | - |
| 1777231552 | 17.22° C | 83% | 965 hPa | - | - | - | - |
| 1777230651 | 17.22° C | 84% | 964 hPa | - | - | - | - |
| 1777229750 | 16.67° C | 88% | 964 hPa | - | - | - | - |
| 1777228849 | 16.11° C | 90% | 964 hPa | - | - | - | - |
| 1777227947 | 17.22° C | 84% | 964 hPa | - | - | - | - |
| 1777227046 | 16.67° C | 86% | 964 hPa | - | - | - | - |
| 1777226145 | 16.67° C | 86% | 964 hPa | - | - | - | - |
| 1777225244 | 17.22° C | 84% | 964 hPa | - | - | - | - |
| 1777224343 | 17.22° C | 85% | 964 hPa | - | - | - | - |
| 1777223442 | 17.22° C | 84% | 964 hPa | - | - | - | - |
| 1777222541 | 17.22° C | 85% | 964 hPa | - | - | - | - |
| 1777221640 | 16.67° C | 85% | 964 hPa | - | - | - | - |
| 1777220739 | 16.67° C | 84% | 964 hPa | - | - | - | - |
| 1777219838 | 16.67° C | 85% | 964 hPa | - | - | - | - |
| 1777218937 | 16.67° C | 86% | 964 hPa | - | - | - | - |
| 1777218035 | 16.67° C | 88% | 964 hPa | - | - | - | - |
| 1777217134 | 17.22° C | 84% | 964 hPa | - | - | - | - |
| 1777216233 | 17.78° C | 80% | 964 hPa | - | - | - | - |
| 1777215332 | 20.56° C | 69% | 964 hPa | - | - | - | - |
* Rain since midnight (hover to see other rain measurements)
** Current wind speed in m/s (hover to see current wind gust speed)